Time;durP1;ratioP1;P1;durP2;ratioP2;P2;SDS_P1;SDS_P2;PMS_P1;PMS_P2;Temp;Humidity;BMP_temperature;BMP_pressure;BME280_temperature;BME280_humidity;BME280_pressure;Samples;Min_cycle;Max_cycle;Signal;HPM_P1;HPM_P2
2022/02/03 00:01:22;;;;;;;;;;;;;;;;;;5116734;28;20327;-73
2022/02/03 00:04:14;;;;;;;;;;;;;;;;;;5117227;28;19916;-73
2022/02/03 00:06:47;;;;;;;;;;;;;;;;;;5116239;28;19969;-73
2022/02/03 00:16:07;;;;;;;;;;;;;;;;;;5116993;28;19931;-73
2022/02/03 00:23:54;;;;;;;;;;;;;;;;;;5105078;27;19916;-73
2022/02/03 00:25:34;;;;;;;;;;;;;;;;;;5126256;27;19916;-72
2022/02/03 00:28:12;;;;;;;;;;;;;;;;;;5136858;27;19922;-73
2022/02/03 00:36:27;;;;;;;;;;;;;;;;;;5101978;27;19934;-73
2022/02/03 00:50:10;;;;;;;;;;;;;;;;;;5136475;27;19962;-73
2022/02/03 00:52:36;;;;;;;;;;;;;;;;;;5136964;27;19911;-73
2022/02/03 00:55:02;;;;;;;;;;;;;;;;;;5136812;27;20318;-73
2022/02/03 00:57:27;;;;;;;;;;;;;;;;;;5136830;27;19919;-73
2022/02/03 00:59:55;;;;;;;;;;;;;;;;;;5136408;27;19922;-73
2022/02/03 01:02:22;;;;;;;;;;;;;;;;;;5136091;27;19919;-73
2022/02/03 01:04:48;;;;;;;;;;;;;;;;;;5136461;27;19922;-73
2022/02/03 01:07:18;;;;;;;;;;;;;;;;;;5135687;27;19919;-73
2022/02/03 01:10:00;;;;;;;;;;;;;;;;;;5117872;27;19915;-73
2022/02/03 01:15:25;;;;;;;;;;;;;;;;;;5136194;27;19919;-73
2022/02/03 01:45:07;;;;;;;;;;;;;;;;;;5135899;27;20006;-74
2022/02/03 01:52:39;;;;;;;;;;;;;;;;;;5089942;28;20425;-73
2022/02/03 01:55:09;;;;;;;;;;;;;;;;;;5091294;28;20263;-73
2022/02/03 01:57:36;;;;;;;;;;;;;;;;;;5091173;28;20015;-73
2022/02/03 02:00:21;;;;;;;;;;;;;;;;;;5091313;28;19923;-73
2022/02/03 02:02:49;;;;;;;;;;;;;;;;;;5091101;28;19964;-73
2022/02/03 02:05:18;;;;;;;;;;;;;;;;;;5089599;28;20057;-73
2022/02/03 02:07:55;;;;;;;;;;;;;;;;;;5090784;28;19923;-73
2022/02/03 02:13:08;;;;;;;;;;;;;;;;;;5091031;28;20327;-72
2022/02/03 02:15:58;;;;;;;;;;;;;;;;;;5089914;28;20019;-72
2022/02/03 02:43:21;;;;;;;;;;;;;;;;;;5090172;28;20342;-71
2022/02/03 02:46:05;;;;;;;;;;;;;;;;;;5090232;28;19916;-72
2022/02/03 02:48:33;;;;;;;;;;;;;;;;;;5095667;28;19927;-72
2022/02/03 02:51:08;;;;;;;;;;;;;;;;;;5109186;28;19916;-72
2022/02/03 02:53:45;;;;;;;;;;;;;;;;;;5109132;28;19924;-71
2022/02/03 02:56:30;;;;;;;;;;;;;;;;;;5109249;28;19923;-72
2022/02/03 03:02:22;;;;;;;;;;;;;;;;;;5034253;28;20352;-72
2022/02/03 03:32:37;;;;;;;;;;;;;;;;;;5096147;28;20447;-73
2022/02/03 03:35:17;;;;;;;;;;;;;;;;;;5094997;28;19923;-74
2022/02/03 03:37:47;;;;;;;;;;;;;;;;;;5096099;28;19916;-73
2022/02/03 03:40:13;;;;;;;;;;;;;;;;;;5095702;28;20358;-73
2022/02/03 03:42:41;;;;;;;;;;;;;;;;;;5095833;28;19974;-73
2022/02/03 03:45:08;;;;;;;;;;;;;;;;;;5095759;28;19923;-73
2022/02/03 03:47:37;;;;;;;;;;;;;;;;;;5094784;28;19916;-73
2022/02/03 03:50:15;;;;;;;;;;;;;;;;;;5095382;28;19972;-74
2022/02/03 03:52:54;;;;;;;;;;;;;;;;;;5095555;28;20380;-74
2022/02/03 04:29:52;;;;;;;;;;;;;;;;;;5092637;28;19963;-74
2022/02/03 04:40:43;;;;;;;;;;;;;;;;;;5094765;28;20396;-74
2022/02/03 04:50:52;;;;;;;;;;;;;;;;;;5094797;28;19916;-74
2022/02/03 05:03:13;;;;;;;;;;;;;;;;;;5094577;28;19916;-74
2022/02/03 05:06:09;;;;;;;;;;;;;;;;;;5094339;28;19916;-74
2022/02/03 05:16:57;;;;;;;;;;;;;;;;;;5094384;28;19962;-74
2022/02/03 05:19:55;;;;;;;;;;;;;;;;;;5094237;28;19922;-73
2022/02/03 05:25:53;;;;;;;;;;;;;;;;;;5062117;28;19916;-73
2022/02/03 05:32:16;;;;;;;;;;;;;;;;;;5093863;28;19916;-74
2022/02/03 05:42:04;;;;;;;;;;;;;;;;;;5031658;28;19925;-74
2022/02/03 05:49:44;;;;;;;;;;;;;;;;;;5092914;28;19924;-74
2022/02/03 06:03:13;;;;;;;;;;;;;;;;;;5093669;28;20297;-75
2022/02/03 06:21:28;;;;;;;;;;;;;;;;;;5093674;28;19916;-76
2022/02/03 06:23:58;;;;;;;;;;;;;;;;;;5093698;28;20014;-75
2022/02/03 06:29:14;;;;;;;;;;;;;;;;;;5093167;28;19920;-75
2022/02/03 06:31:42;;;;;;;;;;;;;;;;;;5093097;28;19946;-76
2022/02/03 06:34:08;;;;;;;;;;;;;;;;;;5093373;28;19919;-75
2022/02/03 06:36:34;;;;;;;;;;;;;;;;;;5096410;28;20301;-76
2022/02/03 06:39:00;;;;;;;;;;;;;;;;;;5096188;28;19923;-76
2022/02/03 06:41:25;;;;;;;;;;;;;;;;;;5097336;28;20293;-76
2022/02/03 06:43:51;;;;;;;;;;;;;;;;;;5097152;28;19923;-76
2022/02/03 06:46:16;;;;;;;;;;;;;;;;;;5096955;28;19941;-76
2022/02/03 06:48:47;;;;;;;;;;;;;;;;;;5096841;28;19988;-76
2022/02/03 06:51:21;;;;;;;;;;;;;;;;;;5096133;28;19916;-75
2022/02/03 06:53:51;;;;;;;;;;;;;;;;;;5097064;28;19916;-75
2022/02/03 06:56:29;;;;;;;;;;;;;;;;;;5097006;28;20385;-75
2022/02/03 06:58:59;;;;;;;;;;;;;;;;;;5095718;28;19923;-75
2022/02/03 07:01:36;;;;;;;;;;;;;;;;;;5096866;28;19916;-75
2022/02/03 07:04:05;;;;;;;;;;;;;;;;;;5096904;28;19997;-75
2022/02/03 07:06:32;;;;;;;;;;;;;;;;;;5096778;28;19919;-75
2022/02/03 07:09:07;;;;;;;;;;;;;;;;;;5096486;28;20423;-75
2022/02/03 07:11:32;;;;;;;;;;;;;;;;;;5095486;28;19916;-75
2022/02/03 07:13:58;;;;;;;;;;;;;;;;;;5096756;28;20342;-76
2022/02/03 07:16:23;;;;;;;;;;;;;;;;;;5094626;28;19916;-75
2022/02/03 07:18:48;;;;;;;;;;;;;;;;;;5096399;28;19923;-76
2022/02/03 07:21:14;;;;;;;;;;;;;;;;;;5095307;28;19954;-75
2022/02/03 07:23:39;;;;;;;;;;;;;;;;;;5096280;28;19920;-76
2022/02/03 07:26:05;;;;;;;;;;;;;;;;;;5096458;28;19916;-75
2022/02/03 07:28:30;;;;;;;;;;;;;;;;;;5096180;28;20349;-75
2022/02/03 07:30:55;;;;;;;;;;;;;;;;;;5096328;28;20326;-76
2022/02/03 07:33:21;;;;;;;;;;;;;;;;;;5094976;28;19916;-75
2022/02/03 07:35:47;;;;;;;;;;;;;;;;;;5096325;28;19916;-76
2022/02/03 07:38:12;;;;;;;;;;;;;;;;;;5095582;28;20316;-76
2022/02/03 07:40:37;;;;;;;;;;;;;;;;;;5094528;28;19923;-75
2022/02/03 07:43:05;;;;;;;;;;;;;;;;;;5096011;28;19950;-76
2022/02/03 07:45:31;;;;;;;;;;;;;;;;;;5094633;28;19916;-75
2022/02/03 07:47:56;;;;;;;;;;;;;;;;;;5095621;28;20023;-76
2022/02/03 07:50:22;;;;;;;;;;;;;;;;;;5095675;28;20425;-75
2022/02/03 07:52:47;;;;;;;;;;;;;;;;;;5095738;28;19920;-76
2022/02/03 07:55:13;;;;;;;;;;;;;;;;;;5096469;28;19923;-75
2022/02/03 07:57:49;;;;;;;;;;;;;;;;;;5096054;28;19916;-75
2022/02/03 08:00:15;;;;;;;;;;;;;;;;;;5095623;28;19916;-75
2022/02/03 08:02:44;;;;;;;;;;;;;;;;;;5095832;28;19921;-75
2022/02/03 08:05:14;;;;;;;;;;;;;;;;;;5095595;28;19994;-75
2022/02/03 08:08:15;;;;;;;;;;;;;;;;;;5095178;28;19920;-75
2022/02/03 08:10:48;;;;;;;;;;;;;;;;;;5094036;28;19916;-75
2022/02/03 08:13:20;;;;;;;;;;;;;;;;;;5095635;28;19966;-75
2022/02/03 08:15:48;;;;;;;;;;;;;;;;;;5095283;28;20268;-75
2022/02/03 08:18:18;;;;;;;;;;;;;;;;;;5095436;28;19916;-76
2022/02/03 08:20:55;;;;;;;;;;;;;;;;;;5095310;28;19984;-75
2022/02/03 08:25:56;;;;;;;;;;;;;;;;;;5093839;28;19930;-75
2022/02/03 08:30:59;;;;;;;;;;;;;;;;;;5095116;28;19920;-75
2022/02/03 08:33:24;;;;;;;;;;;;;;;;;;5094864;28;20014;-75
2022/02/03 08:35:51;;;;;;;;;;;;;;;;;;5095275;28;20016;-75
2022/02/03 08:38:28;;;;;;;;;;;;;;;;;;5095258;28;19916;-75
2022/02/03 08:43:19;;;;;;;;;;;;;;;;;;5095025;28;19916;-75
2022/02/03 08:45:45;;;;;;;;;;;;;;;;;;5094112;28;20397;-75
2022/02/03 08:48:11;;;;;;;;;;;;;;;;;;5095288;28;19916;-76
2022/02/03 08:50:37;;;;;;;;;;;;;;;;;;5095203;28;19916;-75
2022/02/03 08:59:02;;;;;;;;;;;;;;;;;;5094400;28;19916;-75
2022/02/03 09:34:29;;;;;;;;;;;;;;;;;;5094519;28;19923;-75
2022/02/03 09:36:04;;;;;;;;;;;;;;;;;;5094471;28;19950;-75
2022/02/03 09:54:41;;;;;;;;;;;;;;;;;;5093684;28;20000;-77
2022/02/03 09:57:16;;;;;;;;;;;;;;;;;;5093538;28;20373;-77
2022/02/03 10:00:03;;;;;;;;;;;;;;;;;;5092495;28;19923;-76
2022/02/03 10:02:32;;;;;;;;;;;;;;;;;;5093886;28;20006;-76
2022/02/03 10:05:20;;;;;;;;;;;;;;;;;;5093573;28;19924;-76
2022/02/03 10:07:52;;;;;;;;;;;;;;;;;;5093758;28;19916;-76
2022/02/03 10:10:17;;;;;;;;;;;;;;;;;;5094598;28;19920;-75
2022/02/03 10:12:45;;;;;;;;;;;;;;;;;;5097727;28;19923;-75
2022/02/03 10:15:11;;;;;;;;;;;;;;;;;;5097325;28;20385;-76
2022/02/03 10:17:39;;;;;;;;;;;;;;;;;;5097446;28;19916;-74
2022/02/03 10:20:08;;;;;;;;;;;;;;;;;;5097500;28;20353;-75
2022/02/03 10:22:43;;;;;;;;;;;;;;;;;;5097466;28;19921;-75
2022/02/03 10:25:14;;;;;;;;;;;;;;;;;;5097345;28;20380;-75
2022/02/03 10:27:43;;;;;;;;;;;;;;;;;;5097452;28;20014;-75
2022/02/03 10:30:08;;;;;;;;;;;;;;;;;;5097236;28;20266;-75
2022/02/03 10:32:40;;;;;;;;;;;;;;;;;;5097205;28;19961;-75
2022/02/03 10:35:13;;;;;;;;;;;;;;;;;;5097245;28;20393;-75
2022/02/03 10:37:44;;;;;;;;;;;;;;;;;;5097080;28;19982;-74
2022/02/03 10:49:14;;;;;;;;;;;;;;;;;;5069596;28;19927;-74
2022/02/03 11:03:12;;;;;;;;;;;;;;;;;;5048050;28;20428;-76
2022/02/03 11:08:31;;;;;;;;;;;;;;;;;;5100107;28;20255;-77
2022/02/03 11:11:00;;;;;;;;;;;;;;;;;;5098328;28;19950;-78
2022/02/03 11:13:32;;;;;;;;;;;;;;;;;;5090868;28;19916;-79
2022/02/03 11:16:02;;;;;;;;;;;;;;;;;;5090488;28;19920;-83
2022/02/03 11:18:27;;;;;;;;;;;;;;;;;;5094499;28;19916;-83
2022/02/03 11:20:53;;;;;;;;;;;;;;;;;;5101341;28;19923;-86
2022/02/03 11:34:54;;;;;;;;;;;;;;;;;;5096958;28;20420;-75
2022/02/03 11:37:10;;;;;;;;;;;;;;;;;;5085749;28;19955;-74
2022/02/03 11:55:29;;;;;;;;;;;;;;;;;;5075586;28;20469;-74
2022/02/03 11:58:15;;;;;;;;;;;;;;;;;;5074216;28;19916;-74
2022/02/03 12:03:47;;;;;;;;;;;;;;;;;;5095798;28;19955;-74
2022/02/03 12:07:05;;;;;;;;;;;;;;;;;;5094585;28;19916;-73
2022/02/03 12:13:00;;;;;;;;;;;;;;;;;;5095583;28;19923;-74
2022/02/03 12:17:51;;;;;;;;;;;;;;;;;;5095419;28;19923;-74
2022/02/03 12:20:41;;;;;;;;;;;;;;;;;;5094034;28;19923;-74
2022/02/03 12:23:28;;;;;;;;;;;;;;;;;;5094090;28;19916;-73
2022/02/03 12:26:02;;;;;;;;;;;;;;;;;;5095180;28;19922;-74
2022/02/03 12:39:02;;;;;;;;;;;;;;;;;;5094941;28;19916;-74
2022/02/03 12:41:40;;;;;;;;;;;;;;;;;;5076804;28;19916;-74
2022/02/03 12:44:12;;;;;;;;;;;;;;;;;;5095046;28;20370;-74
2022/02/03 12:46:37;;;;;;;;;;;;;;;;;;5094605;28;19959;-74
2022/02/03 12:49:03;;;;;;;;;;;;;;;;;;5094470;28;19966;-74
2022/02/03 12:51:28;;;;;;;;;;;;;;;;;;5094907;28;19923;-74
2022/02/03 12:53:56;;;;;;;;;;;;;;;;;;5094469;28;19916;-74
2022/02/03 12:56:23;;;;;;;;;;;;;;;;;;5094784;28;19915;-74
2022/02/03 12:58:52;;;;;;;;;;;;;;;;;;5094556;28;20308;-74
2022/02/03 13:01:27;;;;;;;;;;;;;;;;;;5093685;28;19923;-74
2022/02/03 13:03:56;;;;;;;;;;;;;;;;;;5093070;28;20002;-74
2022/02/03 13:06:24;;;;;;;;;;;;;;;;;;5094459;28;20006;-74
2022/02/03 13:08:55;;;;;;;;;;;;;;;;;;5093995;28;19924;-74
2022/02/03 13:11:41;;;;;;;;;;;;;;;;;;5077473;28;19966;-74
2022/02/03 13:16:56;;;;;;;;;;;;;;;;;;5074035;28;19978;-74
2022/02/03 13:19:42;;;;;;;;;;;;;;;;;;5072793;28;19917;-74
2022/02/03 13:22:16;;;;;;;;;;;;;;;;;;5080881;28;19920;-74
2022/02/03 13:27:24;;;;;;;;;;;;;;;;;;5094093;28;19916;-74
2022/02/03 13:30:04;;;;;;;;;;;;;;;;;;5092913;28;19931;-74
2022/02/03 13:32:38;;;;;;;;;;;;;;;;;;5093905;28;19986;-74
2022/02/03 13:35:20;;;;;;;;;;;;;;;;;;5094859;28;19922;-73
2022/02/03 13:37:55;;;;;;;;;;;;;;;;;;5092803;28;20427;-74
2022/02/03 13:40:22;;;;;;;;;;;;;;;;;;5093949;28;20007;-74
2022/02/03 13:42:50;;;;;;;;;;;;;;;;;;5093820;28;20003;-74
2022/02/03 13:45:18;;;;;;;;;;;;;;;;;;5092720;28;19916;-73
2022/02/03 13:47:43;;;;;;;;;;;;;;;;;;5093272;28;20012;-74
2022/02/03 13:50:21;;;;;;;;;;;;;;;;;;5082861;28;20015;-74
2022/02/03 13:52:52;;;;;;;;;;;;;;;;;;5083443;28;19961;-74
2022/02/03 14:13:20;;;;;;;;;;;;;;;;;;5088335;28;20340;-74
2022/02/03 14:20:43;;;;;;;;;;;;;;;;;;5083572;28;19923;-73
2022/02/03 14:28:18;;;;;;;;;;;;;;;;;;5089136;28;19924;-73
2022/02/03 14:30:47;;;;;;;;;;;;;;;;;;5093329;28;19916;-73
2022/02/03 14:33:17;;;;;;;;;;;;;;;;;;5089357;28;19920;-72
2022/02/03 14:35:44;;;;;;;;;;;;;;;;;;5081699;28;20008;-73
2022/02/03 14:38:18;;;;;;;;;;;;;;;;;;5083107;28;20374;-74
2022/02/03 14:41:00;;;;;;;;;;;;;;;;;;5081531;28;19916;-74
2022/02/03 14:43:25;;;;;;;;;;;;;;;;;;5083808;28;19917;-74
2022/02/03 14:45:52;;;;;;;;;;;;;;;;;;5081513;28;19923;-74
2022/02/03 14:48:17;;;;;;;;;;;;;;;;;;5082632;28;19924;-74
2022/02/03 14:50:43;;;;;;;;;;;;;;;;;;5083264;28;19927;-74
2022/02/03 14:53:16;;;;;;;;;;;;;;;;;;5081750;28;19948;-74
2022/02/03 14:58:28;;;;;;;;;;;;;;;;;;5085011;28;19950;-75
2022/02/03 15:00:56;;;;;;;;;;;;;;;;;;5086752;28;19920;-75
2022/02/03 15:03:22;;;;;;;;;;;;;;;;;;5085064;28;19924;-74
2022/02/03 15:05:48;;;;;;;;;;;;;;;;;;5087055;28;20340;-74
2022/02/03 15:08:19;;;;;;;;;;;;;;;;;;5085063;28;19916;-74
2022/02/03 15:10:50;;;;;;;;;;;;;;;;;;5085421;28;19920;-74
2022/02/03 15:15:44;;;;;;;;;;;;;;;;;;5096639;28;19918;-74
2022/02/03 15:18:10;;;;;;;;;;;;;;;;;;5084264;28;19999;-75
2022/02/03 15:20:36;;;;;;;;;;;;;;;;;;5076155;28;20402;-74
2022/02/03 15:23:02;;;;;;;;;;;;;;;;;;5074605;28;19916;-74
2022/02/03 15:25:28;;;;;;;;;;;;;;;;;;5076166;28;19923;-74
2022/02/03 15:27:55;;;;;;;;;;;;;;;;;;5075100;28;19917;-74
2022/02/03 15:30:20;;;;;;;;;;;;;;;;;;5076116;28;20016;-74
2022/02/03 15:32:45;;;;;;;;;;;;;;;;;;5075933;28;19920;-74
2022/02/03 15:35:19;;;;;;;;;;;;;;;;;;5094340;28;19916;-74
2022/02/03 15:37:46;;;;;;;;;;;;;;;;;;5095096;28;19922;-77
2022/02/03 15:40:17;;;;;;;;;;;;;;;;;;5096339;28;19971;-77
2022/02/03 15:42:51;;;;;;;;;;;;;;;;;;5096377;28;19964;-76
2022/02/03 15:45:17;;;;;;;;;;;;;;;;;;5095085;28;19916;-76
2022/02/03 15:47:48;;;;;;;;;;;;;;;;;;5094741;28;19962;-76
2022/02/03 16:17:17;;;;;;;;;;;;;;;;;;5095621;28;19916;-76
2022/02/03 16:22:27;;;;;;;;;;;;;;;;;;5085266;28;20435;-76
2022/02/03 16:26:33;;;;;;;;;;;;;;;;;;5083824;28;19923;-75
2022/02/03 16:54:56;;;;;;;;;;;;;;;;;;5092831;28;19920;-75
2022/02/03 16:57:25;;;;;;;;;;;;;;;;;;5093510;28;20438;-75
2022/02/03 17:02:16;;;;;;;;;;;;;;;;;;5094610;28;19959;-75
2022/02/03 17:04:41;;;;;;;;;;;;;;;;;;5093809;28;20320;-74
2022/02/03 17:07:07;;;;;;;;;;;;;;;;;;5094404;28;20003;-74
2022/02/03 17:09:33;;;;;;;;;;;;;;;;;;5093480;28;19928;-75
2022/02/03 17:11:58;;;;;;;;;;;;;;;;;;5093578;28;20349;-75
2022/02/03 17:14:25;;;;;;;;;;;;;;;;;;5093383;28;19916;-74
2022/02/03 17:16:51;;;;;;;;;;;;;;;;;;5094134;28;20014;-74
2022/02/03 17:19:19;;;;;;;;;;;;;;;;;;5093386;28;19962;-74
2022/02/03 17:21:44;;;;;;;;;;;;;;;;;;5092057;28;19920;-74
2022/02/03 17:24:11;;;;;;;;;;;;;;;;;;5094197;28;20417;-74
2022/02/03 17:26:49;;;;;;;;;;;;;;;;;;5092041;28;20380;-74
2022/02/03 17:29:28;;;;;;;;;;;;;;;;;;5093840;28;19973;-74
2022/02/03 17:32:03;;;;;;;;;;;;;;;;;;5092101;28;19916;-74
2022/02/03 18:29:52;;;;;;;;;;;;;;;;;;5068275;28;19920;-74
2022/02/03 18:45:55;;;;;;;;;;;;;;;;;;5097277;28;19924;-74
2022/02/03 18:49:33;;;;;;;;;;;;;;;;;;5096881;28;20365;-74
2022/02/03 18:51:24;;;;;;;;;;;;;;;;;;5096914;28;19920;-73
2022/02/03 19:13:15;;;;;;;;;;;;;;;;;;5095886;28;19927;-75
2022/02/03 19:15:22;;;;;;;;;;;;;;;;;;5096503;28;19920;-74
2022/02/03 19:23:55;;;;;;;;;;;;;;;;;;5096484;28;19916;-76
2022/02/03 19:29:07;;;;;;;;;;;;;;;;;;5096983;28;19920;-77
2022/02/03 20:00:11;;;;;;;;;;;;;;;;;;5095731;28;19916;-76
2022/02/03 20:02:07;;;;;;;;;;;;;;;;;;5096006;28;19916;-76
2022/02/03 20:04:45;;;;;;;;;;;;;;;;;;5095763;28;19961;-76
2022/02/03 20:10:03;;;;;;;;;;;;;;;;;;5086802;28;19943;-76
2022/02/03 20:12:29;;;;;;;;;;;;;;;;;;5088696;28;19916;-76
2022/02/03 20:14:54;;;;;;;;;;;;;;;;;;5086110;28;20266;-76
2022/02/03 20:17:20;;;;;;;;;;;;;;;;;;5085492;28;19920;-75
2022/02/03 20:19:49;;;;;;;;;;;;;;;;;;5083400;28;19923;-76
2022/02/03 20:22:14;;;;;;;;;;;;;;;;;;5085688;28;19916;-77
2022/02/03 20:24:40;;;;;;;;;;;;;;;;;;5084370;28;20011;-76
2022/02/03 20:27:05;;;;;;;;;;;;;;;;;;5085968;28;19932;-76
2022/02/03 20:29:31;;;;;;;;;;;;;;;;;;5084848;28;19921;-75
2022/02/03 20:31:56;;;;;;;;;;;;;;;;;;5084237;28;20445;-76
2022/02/03 20:34:22;;;;;;;;;;;;;;;;;;5082929;28;19964;-76
2022/02/03 20:36:47;;;;;;;;;;;;;;;;;;5084539;28;20290;-76
2022/02/03 20:39:13;;;;;;;;;;;;;;;;;;5083774;28;19916;-76
2022/02/03 20:41:39;;;;;;;;;;;;;;;;;;5084777;28;19977;-76
2022/02/03 20:44:04;;;;;;;;;;;;;;;;;;5085328;28;20374;-76
2022/02/03 20:46:31;;;;;;;;;;;;;;;;;;5085570;28;19942;-78
2022/02/03 20:48:56;;;;;;;;;;;;;;;;;;5085880;28;19931;-76
2022/02/03 20:51:22;;;;;;;;;;;;;;;;;;5084224;28;20354;-76
2022/02/03 20:53:48;;;;;;;;;;;;;;;;;;5084255;28;19974;-76
2022/02/03 20:56:17;;;;;;;;;;;;;;;;;;5083205;28;19912;-77
2022/02/03 20:58:46;;;;;;;;;;;;;;;;;;5081841;28;20267;-76
2022/02/03 21:01:18;;;;;;;;;;;;;;;;;;5083078;28;19923;-76
2022/02/03 21:03:46;;;;;;;;;;;;;;;;;;5083317;28;20378;-76
2022/02/03 21:06:12;;;;;;;;;;;;;;;;;;5074406;28;20314;-76
2022/02/03 21:08:40;;;;;;;;;;;;;;;;;;5073936;28;19920;-76
2022/02/03 21:11:05;;;;;;;;;;;;;;;;;;5074232;28;20015;-76
2022/02/03 21:13:31;;;;;;;;;;;;;;;;;;5074064;28;20397;-76
2022/02/03 21:15:59;;;;;;;;;;;;;;;;;;5074085;28;19916;-76
2022/02/03 21:18:24;;;;;;;;;;;;;;;;;;5074438;28;19917;-76
2022/02/03 21:20:51;;;;;;;;;;;;;;;;;;5073859;28;19965;-76
2022/02/03 21:23:16;;;;;;;;;;;;;;;;;;5058623;28;19916;-76
2022/02/03 21:25:46;;;;;;;;;;;;;;;;;;5079513;28;20439;-75
2022/02/03 21:28:18;;;;;;;;;;;;;;;;;;5083812;28;19920;-76
2022/02/03 21:30:44;;;;;;;;;;;;;;;;;;5081065;28;19939;-77
2022/02/03 21:33:15;;;;;;;;;;;;;;;;;;5083452;28;20007;-76
2022/02/03 21:35:44;;;;;;;;;;;;;;;;;;5082066;28;19943;-76
2022/02/03 21:38:09;;;;;;;;;;;;;;;;;;5084007;28;20410;-76
2022/02/03 21:40:35;;;;;;;;;;;;;;;;;;5080619;28;19917;-77
2022/02/03 21:43:01;;;;;;;;;;;;;;;;;;5084278;28;19967;-76
2022/02/03 21:45:27;;;;;;;;;;;;;;;;;;5085138;28;19970;-76
2022/02/03 21:47:53;;;;;;;;;;;;;;;;;;5083262;28;19920;-76
2022/02/03 21:50:18;;;;;;;;;;;;;;;;;;5084021;28;19927;-77
2022/02/03 21:52:48;;;;;;;;;;;;;;;;;;5081727;28;19942;-77
2022/02/03 21:55:14;;;;;;;;;;;;;;;;;;5083496;28;19952;-77
2022/02/03 21:57:43;;;;;;;;;;;;;;;;;;5080804;28;19921;-76
2022/02/03 22:00:11;;;;;;;;;;;;;;;;;;5083579;28;19920;-76
2022/02/03 22:02:38;;;;;;;;;;;;;;;;;;5082554;28;19917;-76
2022/02/03 22:05:04;;;;;;;;;;;;;;;;;;5083126;28;19916;-76
2022/02/03 22:07:29;;;;;;;;;;;;;;;;;;5085759;28;19990;-76
2022/02/03 22:09:55;;;;;;;;;;;;;;;;;;5087746;28;20011;-76
2022/02/03 22:12:20;;;;;;;;;;;;;;;;;;5086192;28;19921;-76
2022/02/03 22:14:45;;;;;;;;;;;;;;;;;;5082981;28;19969;-75
2022/02/03 22:17:11;;;;;;;;;;;;;;;;;;5077459;28;19917;-76
2022/02/03 22:19:40;;;;;;;;;;;;;;;;;;5077588;28;19969;-76
2022/02/03 22:22:21;;;;;;;;;;;;;;;;;;5077471;28;19916;-76
2022/02/03 22:25:10;;;;;;;;;;;;;;;;;;5077443;28;19942;-76
2022/02/03 22:49:00;;;;;;;;;;;;;;;;;;5096875;28;20413;-76
2022/02/03 22:51:25;;;;;;;;;;;;;;;;;;5097312;28;19962;-77
2022/02/03 22:53:50;;;;;;;;;;;;;;;;;;5097064;28;20007;-77
2022/02/03 22:56:17;;;;;;;;;;;;;;;;;;5096784;28;19916;-77
2022/02/03 22:59:19;;;;;;;;;;;;;;;;;;5096967;28;19955;-76
2022/02/03 23:01:40;;;;;;;;;;;;;;;;;;5096846;28;19923;-76
2022/02/03 23:04:05;;;;;;;;;;;;;;;;;;5096832;28;20385;-76
2022/02/03 23:06:31;;;;;;;;;;;;;;;;;;5095616;28;19981;-76
2022/02/03 23:09:03;;;;;;;;;;;;;;;;;;5095598;28;20397;-76
2022/02/03 23:12:02;;;;;;;;;;;;;;;;;;5096536;28;19923;-76
2022/02/03 23:14:37;;;;;;;;;;;;;;;;;;5095043;28;19920;-76
2022/02/03 23:17:18;;;;;;;;;;;;;;;;;;5094639;28;19941;-76
2022/02/03 23:20:02;;;;;;;;;;;;;;;;;;5095105;28;19916;-76
2022/02/03 23:22:28;;;;;;;;;;;;;;;;;;5095183;28;19916;-76
2022/02/03 23:24:54;;;;;;;;;;;;;;;;;;5095172;28;19991;-76
2022/02/03 23:30:05;;;;;;;;;;;;;;;;;;5096343;28;19920;-76
2022/02/03 23:32:31;;;;;;;;;;;;;;;;;;5096322;28;20024;-76
2022/02/03 23:35:07;;;;;;;;;;;;;;;;;;5096129;28;20348;-76
2022/02/03 23:37:37;;;;;;;;;;;;;;;;;;5094955;28;19916;-76
2022/02/03 23:40:09;;;;;;;;;;;;;;;;;;5096192;28;19975;-76
2022/02/03 23:43:21;;;;;;;;;;;;;;;;;;5096114;28;19981;-76
2022/02/03 23:49:23;;;;;;;;;;;;;;;;;;5095924;28;19916;-76
